Time;durP1;ratioP1;P1;durP2;ratioP2;P2;SDS_P1;SDS_P2;PMS_P1;PMS_P2;Temp;Humidity;BMP_temperature;BMP_pressure;BME280_temperature;BME280_humidity;BME280_pressure;Samples;Min_cycle;Max_cycle;Signal;HPM_P1;HPM_P2
2022/11/29 00:01:46;;;;;;;9.25;4.93;;;;;;;20.64;42.34;101416.69;5022147;28;20044;-67
2022/11/29 00:04:11;;;;;;;9.50;4.80;;;;;;;20.62;42.37;101413.38;5020609;28;20045;-67
2022/11/29 00:06:37;;;;;;;8.27;4.75;;;;;;;20.62;42.16;101418.66;5026760;28;20037;-66
2022/11/29 00:09:10;;;;;;;9.82;4.95;;;;;;;20.50;42.25;101405.81;5026667;28;20041;-65
2022/11/29 00:14:22;;;;;;;10.52;5.55;;;;;;;20.59;42.35;101408.44;5026839;28;20052;-67
2022/11/29 00:16:58;;;;;;;10.25;4.90;;;;;;;20.57;42.38;101418.38;5041235;28;20119;-67
2022/11/29 00:19:23;;;;;;;10.07;5.45;;;;;;;20.58;42.36;101412.06;5027341;28;20278;-66
2022/11/29 00:21:49;;;;;;;8.18;4.65;;;;;;;20.50;42.22;101413.75;5027972;28;20029;-67
2022/11/29 00:24:15;;;;;;;11.82;5.47;;;;;;;20.51;42.24;101414.59;5024253;28;20040;-67
2022/11/29 00:26:41;;;;;;;11.02;5.18;;;;;;;20.57;42.17;101424.47;5026966;28;20041;-67
2022/11/29 00:29:06;;;;;;;10.23;5.18;;;;;;;20.59;42.41;101425.13;5026253;28;20330;-66
2022/11/29 00:31:32;;;;;;;8.85;4.72;;;;;;;20.51;42.47;101427.81;5025343;28;20123;-67
2022/11/29 00:34:00;;;;;;;9.43;4.78;;;;;;;20.49;42.44;101433.28;5031609;28;20120;-66
2022/11/29 00:36:26;;;;;;;8.43;4.75;;;;;;;20.55;42.36;101437.06;5026250;28;20384;-67
2022/11/29 00:38:51;;;;;;;9.02;5.25;;;;;;;20.50;42.30;101437.56;5031359;28;20090;-67
2022/11/29 00:41:17;;;;;;;9.25;5.40;;;;;;;20.50;42.23;101436.75;5029583;28;20615;-67
2022/11/29 00:43:42;;;;;;;9.07;4.72;;;;;;;20.44;42.48;101437.41;5029579;28;20549;-65
2022/11/29 00:46:08;;;;;;;9.90;5.35;;;;;;;20.41;42.59;101428.00;5032798;28;20120;-66
2022/11/29 00:48:34;;;;;;;11.35;5.72;;;;;;;20.42;42.55;101439.41;5030526;28;20515;-67
2022/11/29 00:51:01;;;;;;;9.43;4.70;;;;;;;20.46;42.47;101435.41;5027430;28;20075;-67
2022/11/29 00:53:27;;;;;;;8.73;4.78;;;;;;;20.46;42.39;101444.19;5026220;28;20029;-67
2022/11/29 00:55:53;;;;;;;8.65;4.45;;;;;;;20.44;42.57;101442.69;5028869;28;20049;-67
2022/11/29 00:58:19;;;;;;;8.98;4.20;;;;;;;20.50;42.44;101437.56;5028098;28;20041;-64
2022/11/29 01:00:45;;;;;;;7.40;4.60;;;;;;;20.49;42.37;101441.22;5032796;28;20499;-65
2022/11/29 01:03:11;;;;;;;8.60;5.05;;;;;;;20.46;42.42;101446.81;5029875;28;20102;-66
2022/11/29 01:05:36;;;;;;;11.30;5.22;;;;;;;20.41;42.73;101448.31;5025945;28;20116;-67
2022/11/29 01:08:02;;;;;;;8.73;4.80;;;;;;;20.42;42.46;101427.00;5035796;28;20091;-67
2022/11/29 01:10:28;;;;;;;10.63;5.00;;;;;;;20.39;42.51;101435.25;5025157;28;20503;-65
2022/11/29 01:12:54;;;;;;;8.05;4.72;;;;;;;20.43;42.59;101435.75;5027692;28;20034;-64
2022/11/29 01:15:20;;;;;;;9.43;4.68;;;;;;;20.36;42.65;101440.06;5039740;28;20041;-66
2022/11/29 01:17:45;;;;;;;8.23;4.55;;;;;;;20.44;42.58;101443.53;5041120;28;20048;-65
2022/11/29 01:20:12;;;;;;;9.27;4.68;;;;;;;20.45;42.40;101450.47;5038126;28;20034;-67
2022/11/29 01:22:38;;;;;;;8.13;4.80;;;;;;;20.47;42.30;101440.56;5029673;28;20041;-65
2022/11/29 01:25:05;;;;;;;7.55;4.25;;;;;;;20.41;42.40;101448.31;5031460;28;20072;-65
2022/11/29 01:27:30;;;;;;;8.60;4.68;;;;;;;20.41;42.43;101446.50;5028198;28;20072;-67
2022/11/29 01:29:56;;;;;;;11.23;4.60;;;;;;;20.46;42.47;101453.94;5030098;28;20041;-64
2022/11/29 01:32:22;;;;;;;8.18;5.03;;;;;;;20.44;42.41;101448.81;5029995;28;20094;-66
2022/11/29 01:34:47;;;;;;;8.82;4.55;;;;;;;20.41;42.36;101461.56;5030761;28;20037;-66
2022/11/29 01:37:13;;;;;;;9.15;5.70;;;;;;;20.34;42.69;101461.38;5031898;28;20029;-67
2022/11/29 01:39:38;;;;;;;7.57;4.80;;;;;;;20.33;42.51;101451.78;5036868;28;20515;-66
2022/11/29 01:42:04;;;;;;;7.43;4.90;;;;;;;20.32;42.73;101459.91;5031915;28;20051;-66
2022/11/29 01:44:29;;;;;;;10.02;5.10;;;;;;;20.40;42.55;101466.00;5028478;28;20429;-65
2022/11/29 01:46:56;;;;;;;7.70;4.68;;;;;;;20.41;42.48;101465.03;5034344;28;20053;-66
2022/11/29 01:49:31;;;;;;;8.13;4.97;;;;;;;20.32;42.69;101462.53;5040795;28;20491;-66
2022/11/29 01:52:18;;;;;;;8.88;4.90;;;;;;;20.30;42.54;101462.72;5033436;28;20029;-66
2022/11/29 01:54:47;;;;;;;8.10;4.60;;;;;;;20.40;42.55;101468.63;5029489;28;20047;-67
2022/11/29 01:57:12;;;;;;;8.93;4.30;;;;;;;20.42;42.51;101466.69;5026088;28;20041;-66
2022/11/29 01:59:43;;;;;;;8.43;4.28;;;;;;;20.35;42.49;101470.97;5032146;28;20087;-67
2022/11/29 02:02:14;;;;;;;8.13;4.57;;;;;;;20.34;42.66;101464.03;5020591;28;20029;-65
2022/11/29 02:04:42;;;;;;;9.80;4.95;;;;;;;20.34;42.67;101466.66;5032078;28;20502;-66
2022/11/29 02:07:08;;;;;;;7.78;4.78;;;;;;;20.33;42.58;101466.84;5025449;28;20037;-66
2022/11/29 02:09:33;;;;;;;9.07;4.85;;;;;;;20.39;42.42;101463.50;5030365;28;20048;-66
2022/11/29 02:12:13;;;;;;;8.85;4.80;;;;;;;20.34;42.66;101471.13;5030336;28;20025;-66
2022/11/29 02:14:44;;;;;;;7.80;4.15;;;;;;;20.31;42.52;101463.53;5029678;28;20040;-66
2022/11/29 02:17:33;;;;;;;7.88;4.68;;;;;;;20.29;42.69;101476.94;5029650;28;20037;-66
2022/11/29 02:20:35;;;;;;;6.65;4.25;;;;;;;20.31;42.66;101479.41;5030307;28;20127;-65
2022/11/29 02:23:31;;;;;;;7.20;4.25;;;;;;;20.36;42.40;101477.91;5028627;28;20037;-66
2022/11/29 02:26:25;;;;;;;7.32;4.35;;;;;;;20.36;42.40;101474.44;5030131;28;20078;-66
2022/11/29 02:29:33;;;;;;;8.25;5.07;;;;;;;20.25;42.79;101474.75;5027471;28;20092;-66
2022/11/29 02:32:26;;;;;;;9.82;4.50;;;;;;;20.31;42.70;101474.13;5029067;28;20052;-66
2022/11/29 02:35:11;;;;;;;8.38;4.45;;;;;;;20.31;42.68;101472.28;5044610;28;20041;-65
2022/11/29 02:38:14;;;;;;;7.55;4.10;;;;;;;20.33;42.49;101480.88;5028642;28;20554;-65
2022/11/29 02:41:30;;;;;;;6.72;3.83;;;;;;;20.29;42.71;101476.94;5031563;28;20068;-66
2022/11/29 02:44:12;;;;;;;7.15;4.55;;;;;;;20.28;42.70;101480.53;4988129;28;20041;-66
2022/11/29 02:46:53;;;;;;;5.93;4.07;;;;;;;20.29;42.65;101482.22;5034958;28;20053;-64
2022/11/29 02:49:40;;;;;;;6.85;4.20;;;;;;;20.33;42.59;101491.47;5036405;28;20663;-66
2022/11/29 02:52:31;;;;;;;8.88;4.18;;;;;;;20.33;42.52;101490.66;5036536;28;20166;-66
2022/11/29 02:55:14;;;;;;;6.72;4.05;;;;;;;20.30;42.74;101498.91;5028888;28;20045;-66
2022/11/29 02:58:00;;;;;;;7.70;4.32;;;;;;;20.22;42.80;101500.56;5032602;28;20090;-66
2022/11/29 03:00:25;;;;;;;9.10;4.40;;;;;;;20.28;42.50;101493.75;5030649;28;20609;-66
2022/11/29 03:03:05;;;;;;;7.18;4.25;;;;;;;20.28;42.68;101501.69;5030637;28;20045;-65
2022/11/29 03:05:35;;;;;;;;;;;;;;;20.33;42.71;101506.50;5031853;28;20120;-66
2022/11/29 03:08:49;;;;;;;7.55;4.60;;;;;;;20.36;42.57;101501.72;5030059;28;19925;-66
2022/11/29 03:11:39;;;;;;;7.40;4.50;;;;;;;20.35;42.54;101507.16;5022258;28;20044;-66
2022/11/29 03:14:27;;;;;;;8.27;4.57;;;;;;;20.27;42.67;101509.81;5027268;28;20305;-66
2022/11/29 03:17:02;;;;;;;9.98;5.00;;;;;;;20.32;42.65;101510.16;5031823;28;20505;-66
2022/11/29 03:19:34;;;;;;;7.38;4.03;;;;;;;20.23;42.71;101510.13;5034711;28;20118;-66
2022/11/29 03:22:17;;;;;;;8.10;4.50;;;;;;;20.36;42.58;101509.66;5028504;28;20059;-66
2022/11/29 03:25:05;;;;;;;9.90;4.80;;;;;;;20.23;42.80;101518.06;5027688;28;20460;-66
2022/11/29 03:28:05;;;;;;;7.68;4.10;;;;;;;20.27;42.75;101515.09;5027445;28;20379;-66
2022/11/29 03:30:35;;;;;;;6.30;3.85;;;;;;;20.19;42.92;101518.56;5031923;28;20555;-66
2022/11/29 03:33:11;;;;;;;6.32;3.70;;;;;;;20.23;42.81;101523.34;5034907;28;20103;-65
2022/11/29 03:35:49;;;;;;;6.10;3.83;;;;;;;20.14;42.92;101524.38;5035543;28;20089;-66
2022/11/29 03:38:37;;;;;;;9.15;4.05;;;;;;;20.20;42.60;101529.00;5027547;28;21170;-66
2022/11/29 03:41:27;;;;;;;5.78;3.97;;;;;;;20.30;42.66;101530.66;5027405;28;20037;-66
2022/11/29 03:44:02;;;;;;;5.82;3.78;;;;;;;20.23;42.80;101533.13;5031209;28;20072;-65
2022/11/29 03:46:56;;;;;;;6.40;4.28;;;;;;;20.20;42.83;101530.81;5029855;28;20414;-66
2022/11/29 03:49:28;;;;;;;7.47;4.30;;;;;;;20.25;42.73;101536.41;5029531;28;20125;-66
2022/11/29 03:51:59;;;;;;;7.50;4.40;;;;;;;20.17;42.93;101537.25;5039150;28;20058;-66
2022/11/29 03:54:32;;;;;;;6.80;4.10;;;;;;;20.23;42.80;101538.41;5029486;28;20125;-66
2022/11/29 03:56:58;;;;;;;7.03;4.47;;;;;;;20.34;42.47;101543.38;5027702;28;20057;-66
2022/11/29 03:59:46;;;;;;;6.35;3.55;;;;;;;20.28;42.66;101541.38;5028212;28;20513;-66
2022/11/29 04:02:20;;;;;;;6.25;3.60;;;;;;;20.25;42.80;101549.63;5027664;28;20079;-66
2022/11/29 04:05:21;;;;;;;6.57;3.50;;;;;;;20.25;42.71;101547.00;5029289;28;20037;-65
2022/11/29 04:08:05;;;;;;;5.50;3.47;;;;;;;20.17;42.79;101544.38;5024864;28;20041;-66
2022/11/29 04:10:46;;;;;;;6.47;3.85;;;;;;;20.17;42.78;101550.47;5029580;28;20052;-66
2022/11/29 04:13:38;;;;;;;8.20;4.18;;;;;;;20.18;42.83;101548.66;5029633;28;20045;-66
2022/11/29 04:16:37;;;;;;;6.53;3.97;;;;;;;20.20;42.91;101550.13;5029352;28;20041;-66
2022/11/29 04:19:15;;;;;;;6.55;4.20;;;;;;;20.23;42.64;101555.09;5034823;28;20037;-65
2022/11/29 04:21:56;;;;;;;5.00;3.17;;;;;;;20.16;42.80;101550.66;5029176;28;20094;-66
2022/11/29 04:24:45;;;;;;;7.68;4.07;;;;;;;20.21;42.94;101559.72;5026672;28;20044;-65
2022/11/29 04:27:33;;;;;;;5.78;3.90;;;;;;;20.20;42.76;101554.59;5033064;28;20048;-64
2022/11/29 04:30:07;;;;;;;6.53;3.45;;;;;;;20.18;42.77;101556.59;5025894;28;20047;-65
2022/11/29 04:33:23;;;;;;;5.57;3.35;;;;;;;20.18;42.70;101554.78;5027473;28;20025;-66
2022/11/29 04:36:37;;;;;;;6.00;3.72;;;;;;;20.15;42.75;101565.69;5020419;28;20049;-66
2022/11/29 04:39:05;;;;;;;5.15;3.28;;;;;;;20.17;42.83;101563.69;5025028;28;20160;-66
2022/11/29 04:42:13;;;;;;;5.40;3.30;;;;;;;20.23;42.77;101570.97;5030089;28;20226;-66
2022/11/29 04:45:10;;;;;;;6.53;3.80;;;;;;;20.08;43.04;101572.59;5029865;28;20085;-65
2022/11/29 04:47:36;;;;;;;7.28;3.80;;;;;;;20.12;42.87;101566.03;5029313;28;20045;-66
2022/11/29 04:50:19;;;;;;;6.30;3.67;;;;;;;20.13;42.93;101567.66;5040414;28;20474;-66
2022/11/29 04:53:12;;;;;;;5.38;3.35;;;;;;;20.19;42.94;101569.66;5028415;28;20418;-66
2022/11/29 04:55:48;;;;;;;6.97;3.55;;;;;;;20.10;42.83;101575.91;5025672;28;20832;-66
2022/11/29 04:58:45;;;;;;;5.35;3.60;;;;;;;20.06;42.98;101581.69;5025494;28;20087;-66
2022/11/29 05:01:32;;;;;;;5.50;3.28;;;;;;;20.08;42.94;101579.72;5024904;28;20040;-66
2022/11/29 05:04:16;;;;;;;5.53;3.13;;;;;;;20.13;43.07;101586.19;5027941;28;20071;-66
2022/11/29 05:07:08;;;;;;;6.75;3.53;;;;;;;20.07;43.00;101586.81;5025954;28;20785;-66
2022/11/29 05:09:47;;;;;;;6.97;3.88;;;;;;;20.14;42.84;101593.13;5027322;28;20511;-66
2022/11/29 05:12:27;;;;;;;5.28;3.33;;;;;;;20.07;43.11;101593.91;5027046;28;20467;-66
2022/11/29 05:15:12;;;;;;;6.07;3.78;;;;;;;20.10;42.93;101598.88;5020169;28;20064;-66
2022/11/29 05:18:08;;;;;;;4.97;3.28;;;;;;;20.12;42.94;101605.69;5027613;28;20041;-66
2022/11/29 05:20:50;;;;;;;5.78;3.70;;;;;;;20.06;42.83;101605.47;5033475;28;20037;-66
2022/11/29 05:24:02;;;;;;;5.97;3.75;;;;;;;20.09;42.98;101602.50;5032058;28;20040;-66
2022/11/29 05:26:30;;;;;;;4.45;3.20;;;;;;;20.10;42.89;101602.34;4989608;28;20574;-66
2022/11/29 05:29:03;;;;;;;5.13;3.10;;;;;;;20.17;42.73;101599.91;5021870;28;20065;-66
2022/11/29 05:31:57;;;;;;;5.53;3.08;;;;;;;20.09;43.02;101613.91;5026253;28;20661;-66
2022/11/29 05:34:33;;;;;;;5.78;3.70;;;;;;;20.13;42.76;101612.63;5028835;28;20548;-65
2022/11/29 05:37:26;;;;;;;4.72;3.13;;;;;;;20.12;42.93;101616.25;5025680;28;20087;-66
2022/11/29 05:40:29;;;;;;;5.35;3.50;;;;;;;20.10;42.88;101620.84;5027600;28;20061;-66
2022/11/29 05:43:24;;;;;;;6.40;3.78;;;;;;;20.12;42.85;101620.72;5028172;28;20542;-66
2022/11/29 05:46:27;;;;;;;4.65;3.05;;;;;;;20.08;42.95;101625.47;5022224;28;20080;-66
2022/11/29 05:49:11;;;;;;;3.72;2.85;;;;;;;20.13;42.91;101623.19;5023943;28;20174;-66
2022/11/29 05:51:52;;;;;;;4.95;3.17;;;;;;;20.13;42.85;101627.66;5036171;28;20037;-66
2022/11/29 05:54:32;;;;;;;4.30;2.83;;;;;;;20.04;43.01;101632.09;5035453;28;20021;-66
2022/11/29 05:57:12;;;;;;;5.90;3.20;;;;;;;20.06;42.92;101637.22;5026685;28;20052;-66
2022/11/29 05:59:40;;;;;;;6.05;3.00;;;;;;;20.04;42.96;101640.00;5024299;28;20152;-66
2022/11/29 06:02:16;;;;;;;4.45;2.80;;;;;;;20.10;42.74;101641.19;5031181;28;20033;-66
2022/11/29 06:04:56;;;;;;;4.50;3.00;;;;;;;20.08;42.94;101641.34;5034003;28;20060;-65
2022/11/29 06:07:43;;;;;;;4.90;2.97;;;;;;;20.13;42.85;101643.53;5029599;28;20491;-65
2022/11/29 06:10:16;;;;;;;5.00;2.95;;;;;;;20.10;42.85;101649.94;5036413;28;20106;-66
2022/11/29 06:13:07;;;;;;;6.45;3.10;;;;;;;20.00;42.91;101643.97;5030046;28;20474;-66
2022/11/29 06:15:51;;;;;;;4.47;3.17;;;;;;;20.10;42.85;101646.47;5031061;28;20041;-66
2022/11/29 06:18:38;;;;;;;4.22;2.90;;;;;;;20.06;43.04;101656.53;5027924;28;20041;-66
2022/11/29 06:21:21;;;;;;;4.45;2.92;;;;;;;20.04;42.99;101658.53;5035814;28;20021;-65
2022/11/29 06:24:19;;;;;;;5.20;2.90;;;;;;;20.06;43.05;101653.91;5036190;28;20739;-65
2022/11/29 06:27:39;;;;;;;4.35;2.78;;;;;;;20.08;43.11;101659.84;5030264;28;20460;-65
2022/11/29 06:30:15;;;;;;;4.03;2.83;;;;;;;20.16;42.67;101661.72;4996358;28;20099;-64
2022/11/29 06:33:35;;;;;;;4.50;2.88;;;;;;;20.14;42.90;101669.81;5025060;28;20412;-66
2022/11/29 06:36:27;;;;;;;3.55;2.42;;;;;;;20.12;43.09;101668.31;5015165;28;20288;-66
2022/11/29 06:38:52;;;;;;;4.55;2.90;;;;;;;20.17;42.74;101672.13;5015469;28;20417;-66
2022/11/29 06:41:21;;;;;;;3.97;2.80;;;;;;;20.11;42.92;101671.94;5036549;28;20052;-66
2022/11/29 06:43:47;;;;;;;3.45;2.58;;;;;;;20.16;42.89;101669.63;5032106;28;20597;-65
2022/11/29 06:46:30;;;;;;;3.85;2.55;;;;;;;20.05;43.21;101669.94;5040766;28;20087;-65
2022/11/29 06:49:06;;;;;;;4.03;2.50;;;;;;;20.14;42.92;101679.56;5026748;28;20032;-65
2022/11/29 06:52:15;;;;;;;3.83;2.45;;;;;;;20.16;43.14;101681.03;5037146;28;20448;-66
2022/11/29 06:55:07;;;;;;;3.47;2.63;;;;;;;20.10;43.21;101683.47;5031890;28;20502;-64
2022/11/29 06:58:06;;;;;;;4.28;2.20;;;;;;;20.09;43.20;101684.47;5034682;28;20046;-66
2022/11/29 07:01:01;;;;;;;4.60;2.42;;;;;;;20.14;43.15;101684.84;5028017;28;20044;-66
2022/11/29 07:03:42;;;;;;;3.63;2.60;;;;;;;20.17;42.85;101690.63;5029339;28;20033;-66
2022/11/29 07:06:17;;;;;;;3.67;2.78;;;;;;;20.09;43.17;101685.31;5036254;28;20037;-66
2022/11/29 07:08:44;;;;;;;3.53;2.42;;;;;;;20.16;43.02;101701.38;5031287;28;20040;-66
2022/11/29 07:11:13;;;;;;;3.22;2.25;;;;;;;20.15;43.00;101699.72;5028719;28;20486;-66
2022/11/29 07:13:38;;;;;;;4.03;2.40;;;;;;;20.18;43.11;101702.88;5027294;28;20072;-65
2022/11/29 07:16:16;;;;;;;4.85;2.65;;;;;;;20.16;43.00;101696.91;5029762;28;20119;-64
2022/11/29 07:18:52;;;;;;;3.05;2.35;;;;;;;20.14;43.20;101696.25;5024563;28;20051;-64
2022/11/29 07:21:26;;;;;;;3.35;2.40;;;;;;;20.11;43.18;101693.94;5032882;28;20118;-64
2022/11/29 07:23:54;;;;;;;3.72;2.53;;;;;;;20.14;43.11;101693.59;5028432;28;20459;-64
2022/11/29 07:26:32;;;;;;;3.30;2.92;;;;;;;20.11;43.27;101695.75;5029359;28;20025;-64
2022/11/29 07:29:01;;;;;;;4.43;2.70;;;;;;;20.18;43.00;101700.22;5025249;28;20110;-64
2022/11/29 07:31:55;;;;;;;4.07;2.40;;;;;;;20.17;42.97;101695.09;5026970;28;20906;-64
2022/11/29 07:34:20;;;;;;;3.67;2.70;;;;;;;20.14;43.08;101700.72;5026292;28;20575;-64
2022/11/29 07:37:05;;;;;;;3.13;2.42;;;;;;;20.13;43.16;101697.25;5028775;28;20041;-64
2022/11/29 07:39:42;;;;;;;3.13;2.50;;;;;;;20.18;43.06;101700.22;5024875;28;20518;-64
2022/11/29 07:42:32;;;;;;;4.07;2.85;;;;;;;20.14;43.07;101706.81;5029960;28;20080;-65
2022/11/29 07:45:02;;;;;;;;;;;;;;;20.20;43.04;101708.00;5027306;28;20036;-65
2022/11/29 07:47:27;;;;;;;3.42;2.58;;;;;;;20.13;43.19;101714.91;5024913;28;19933;-65
2022/11/29 07:49:53;;;;;;;3.40;2.40;;;;;;;20.26;42.85;101709.16;5029387;28;20046;-65
2022/11/29 07:52:18;;;;;;;5.75;2.70;;;;;;;20.21;42.83;101707.81;5034462;28;20036;-65
2022/11/29 07:54:44;;;;;;;4.25;2.63;;;;;;;20.15;43.23;101708.47;5031570;28;20127;-64
2022/11/29 07:57:10;;;;;;;6.03;2.72;;;;;;;20.15;43.15;101719.06;5035010;28;20067;-65
2022/11/29 07:59:35;;;;;;;3.75;2.88;;;;;;;20.18;42.97;101721.38;5033771;28;20099;-65
2022/11/29 08:02:01;;;;;;;3.45;2.45;;;;;;;20.19;43.00;101724.84;5035273;28;20048;-65
2022/11/29 08:04:27;;;;;;;4.57;2.70;;;;;;;20.20;43.03;101727.34;5033853;28;20048;-65
2022/11/29 08:06:52;;;;;;;4.43;2.58;;;;;;;20.12;43.26;101729.13;5031032;28;20048;-65
2022/11/29 08:09:18;;;;;;;2.83;2.40;;;;;;;20.26;42.70;101736.44;5030076;28;20033;-65
2022/11/29 08:11:43;;;;;;;4.10;2.70;;;;;;;20.12;43.11;101729.13;5034771;28;20038;-65
2022/11/29 08:14:09;;;;;;;3.83;2.60;;;;;;;20.17;43.12;101735.59;5026572;28;20041;-65
2022/11/29 08:16:35;;;;;;;4.47;2.72;;;;;;;20.22;42.98;101735.94;5024939;28;20052;-64
2022/11/29 08:19:01;;;;;;;3.70;2.30;;;;;;;20.15;43.13;101732.28;5028840;28;20083;-64
2022/11/29 08:21:26;;;;;;;4.03;2.55;;;;;;;20.15;43.14;101734.91;5031968;28;20037;-64
2022/11/29 08:23:52;;;;;;;4.53;2.80;;;;;;;20.16;43.07;101738.41;5027689;28;20040;-64
2022/11/29 08:26:18;;;;;;;4.75;2.58;;;;;;;20.19;43.08;101735.44;5033517;28;20733;-68
2022/11/29 08:28:44;;;;;;;4.95;2.58;;;;;;;20.21;43.03;101728.16;5028848;28;20045;-65
2022/11/29 08:31:11;;;;;;;6.93;2.95;;;;;;;20.22;43.12;101737.75;5032996;28;20033;-65
2022/11/29 08:33:41;;;;;;;4.43;3.10;;;;;;;20.17;43.24;101742.69;5032697;28;20044;-66
2022/11/29 08:39:42;;;;;;;5.18;2.97;;;;;;;20.20;43.20;101740.56;5035807;28;20321;-64
2022/11/29 08:42:08;;;;;;;3.13;2.50;;;;;;;20.22;43.08;101746.50;5031273;28;20045;-65
2022/11/29 08:44:34;;;;;;;4.13;2.50;;;;;;;20.24;42.73;101741.06;5029097;28;20047;-65
2022/11/29 08:50:02;;;;;;;6.07;3.13;;;;;;;20.18;42.90;101747.81;5034464;28;20048;-65
2022/11/29 08:55:21;;;;;;;5.15;3.28;;;;;;;20.12;43.09;101747.63;5031910;28;20045;-65
2022/11/29 08:57:47;;;;;;;;;;;;;;;20.11;43.03;101754.75;5032395;28;20479;-65
2022/11/29 09:00:13;;;;;;;5.20;3.05;;;;;;;20.16;42.94;101754.25;5037505;28;19912;-65
2022/11/29 09:02:39;;;;;;;4.95;2.83;;;;;;;20.14;43.06;101761.53;5036726;28;20132;-64
2022/11/29 09:05:06;;;;;;;4.35;3.00;;;;;;;20.18;42.88;101762.84;5032818;28;20679;-65
2022/11/29 09:07:31;;;;;;;5.47;3.05;;;;;;;20.17;42.97;101764.69;5030689;28;20041;-65
2022/11/29 09:09:57;;;;;;;4.47;2.78;;;;;;;20.17;42.92;101774.44;5024698;28;20443;-65
2022/11/29 09:12:22;;;;;;;6.38;2.80;;;;;;;20.17;42.93;101764.69;5027439;28;20480;-64
2022/11/29 09:14:48;;;;;;;4.07;2.95;;;;;;;20.23;42.83;101779.06;5025181;28;20411;-65
2022/11/29 09:17:13;;;;;;;3.65;2.83;;;;;;;20.16;42.92;101773.59;5034142;28;20033;-65
2022/11/29 09:19:39;;;;;;;4.38;2.70;;;;;;;20.15;42.91;101776.41;5029378;28;20043;-65
2022/11/29 09:22:05;;;;;;;3.88;2.67;;;;;;;20.09;42.90;101772.56;5027497;28;20446;-65
2022/11/29 09:24:32;;;;;;;4.53;3.28;;;;;;;20.18;42.87;101776.91;5028329;28;20045;-65
2022/11/29 09:26:58;;;;;;;4.70;2.70;;;;;;;20.12;42.97;101785.50;5034440;28;20040;-65
2022/11/29 09:29:23;;;;;;;3.58;2.55;;;;;;;20.20;42.76;101789.97;5028769;28;20049;-65
2022/11/29 09:31:49;;;;;;;4.53;2.70;;;;;;;20.16;42.89;101788.63;5030992;28;20047;-65
2022/11/29 09:34:16;;;;;;;4.22;2.67;;;;;;;20.18;42.81;101798.06;5027566;28;20061;-64
2022/11/29 09:36:44;;;;;;;5.43;3.20;;;;;;;20.11;42.81;101791.75;5035814;28;20423;-66
2022/11/29 09:39:11;;;;;;;4.85;3.10;;;;;;;20.14;42.96;101801.19;5033139;28;20110;-65
2022/11/29 09:41:55;;;;;;;4.03;2.90;;;;;;;20.10;42.89;101800.66;5032963;28;20040;-65
2022/11/29 09:44:36;;;;;;;3.88;2.92;;;;;;;20.16;42.84;101800.03;5034091;28;20032;-65
2022/11/29 09:47:17;;;;;;;5.05;2.88;;;;;;;20.10;42.97;101805.94;5033643;28;20110;-66
2022/11/29 09:50:25;;;;;;;4.30;2.75;;;;;;;20.12;42.87;101809.28;5037586;28;20484;-65
2022/11/29 09:53:13;;;;;;;3.92;2.83;;;;;;;20.09;42.81;101803.47;5030946;28;20064;-65
2022/11/29 09:55:50;;;;;;;5.20;2.78;;;;;;;20.18;42.58;101816.56;5034962;28;20040;-65
2022/11/29 09:58:25;;;;;;;6.15;3.10;;;;;;;20.11;42.97;101814.75;5029975;28;20044;-65
2022/11/29 10:00:58;;;;;;;3.60;2.80;;;;;;;20.07;43.00;101810.72;5029992;28;20071;-65
2022/11/29 10:03:37;;;;;;;4.57;2.60;;;;;;;20.10;42.86;101823.63;5032603;28;20044;-65
2022/11/29 10:06:35;;;;;;;6.15;2.83;;;;;;;20.07;42.89;101819.50;5029381;28;20151;-65
2022/11/29 10:09:33;;;;;;;3.83;2.80;;;;;;;20.13;42.75;101818.06;5034061;28;20438;-65
2022/11/29 10:12:03;;;;;;;5.35;3.00;;;;;;;20.04;43.11;101817.16;5028618;28;20056;-65
2022/11/29 10:15:01;;;;;;;4.35;3.03;;;;;;;20.08;42.85;101817.66;5034284;28;20032;-65
2022/11/29 10:17:38;;;;;;;4.82;2.85;;;;;;;20.13;42.69;101815.41;5033169;28;20087;-65
2022/11/29 10:20:11;;;;;;;4.40;2.72;;;;;;;20.12;42.76;101809.28;5029014;28;20119;-65
2022/11/29 10:23:01;;;;;;;4.28;2.63;;;;;;;20.12;42.68;101819.88;5030401;28;20705;-65
2022/11/29 10:25:44;;;;;;;5.63;2.70;;;;;;;20.09;42.76;101814.88;5030289;28;20036;-65
2022/11/29 10:28:14;;;;;;;3.70;2.55;;;;;;;20.14;42.68;101806.47;5033870;28;20029;-65
2022/11/29 10:30:41;;;;;;;3.88;2.63;;;;;;;20.09;42.68;101801.66;5035401;28;20040;-65
2022/11/29 10:33:19;;;;;;;3.70;2.53;;;;;;;20.10;42.85;101820.97;5037134;28;20102;-65
2022/11/29 10:35:49;;;;;;;3.50;2.70;;;;;;;20.14;42.78;101811.78;5029854;28;20160;-65
2022/11/29 10:38:15;;;;;;;5.32;2.80;;;;;;;20.18;42.66;101807.81;5030938;28;20089;-65
2022/11/29 10:40:46;;;;;;;4.53;2.78;;;;;;;20.11;42.90;101812.91;5031481;28;20438;-66
2022/11/29 10:43:12;;;;;;;4.82;2.80;;;;;;;20.12;42.81;101817.22;5027845;28;20037;-66
2022/11/29 10:45:44;;;;;;;5.13;2.90;;;;;;;20.15;42.84;101822.19;4977327;28;20134;-64
2022/11/29 10:48:11;;;;;;;5.28;2.88;;;;;;;20.24;42.75;101817.75;5030028;28;20788;-65
2022/11/29 10:50:41;;;;;;;6.22;3.00;;;;;;;20.29;42.56;101822.56;5034231;28;20110;-65
2022/11/29 10:53:09;;;;;;;;;;;;;;;20.34;42.55;101821.13;5035488;28;20030;-64
2022/11/29 10:56:15;;;;;;;4.65;2.78;;;;;;;20.43;42.37;101824.66;5033999;28;19916;-65
2022/11/29 10:58:56;;;;;;;4.75;3.15;;;;;;;20.51;42.19;101822.03;5037966;28;20040;-65
2022/11/29 11:01:23;;;;;;;4.70;2.53;;;;;;;20.57;41.88;101823.22;5023525;28;20294;-65
2022/11/29 11:03:52;;;;;;;4.68;2.40;;;;;;;20.60;41.89;101830.81;5037498;28;20041;-64
2022/11/29 11:06:27;;;;;;;7.32;2.90;;;;;;;20.63;41.93;101830.50;5034755;28;20067;-65
2022/11/29 11:09:23;;;;;;;4.15;2.53;;;;;;;20.74;41.59;101838.16;5033247;28;20403;-65
2022/11/29 11:11:55;;;;;;;4.57;2.45;;;;;;;20.72;41.64;101837.50;5030681;28;20043;-65
2022/11/29 11:14:36;;;;;;;3.50;2.30;;;;;;;20.84;41.30;101832.72;5032103;28;20112;-65
2022/11/29 11:17:15;;;;;;;4.22;2.67;;;;;;;20.85;41.56;101829.91;5009095;28;20040;-65
2022/11/29 11:19:41;;;;;;;5.35;2.60;;;;;;;20.86;41.28;101830.75;5035396;28;20028;-64
2022/11/29 11:22:20;;;;;;;4.15;2.60;;;;;;;20.95;41.42;101820.00;5034250;28;20139;-65
2022/11/29 11:24:54;;;;;;;5.32;2.67;;;;;;;20.91;41.17;101812.53;5033791;28;20091;-65
2022/11/29 11:27:36;;;;;;;3.75;2.67;;;;;;;20.95;41.12;101825.28;5030825;28;20671;-65
2022/11/29 11:30:04;;;;;;;4.10;2.63;;;;;;;20.98;41.03;101829.44;5034234;28;20041;-66
2022/11/29 11:32:30;;;;;;;4.05;2.80;;;;;;;21.04;41.03;101834.09;5017119;28;20029;-64
2022/11/29 11:34:58;;;;;;;3.60;2.50;;;;;;;21.01;41.12;101837.06;5021145;28;20539;-65
2022/11/29 11:37:32;;;;;;;3.30;2.13;;;;;;;21.09;40.95;101835.25;5048096;28;20048;-65
2022/11/29 11:40:19;;;;;;;3.97;2.53;;;;;;;21.08;41.19;101830.13;5030937;28;20032;-64
2022/11/29 11:42:45;;;;;;;6.43;3.05;;;;;;;21.05;41.15;101836.56;5038637;28;20045;-65
2022/11/29 11:45:11;;;;;;;4.03;2.30;;;;;;;21.06;41.09;101834.75;5038191;28;20048;-65
2022/11/29 11:47:43;;;;;;;4.30;2.30;;;;;;;21.07;41.15;101836.41;5032468;28;20053;-65
2022/11/29 11:50:13;;;;;;;8.38;2.83;;;;;;;21.03;41.22;101830.63;5004448;28;20037;-64
2022/11/29 11:52:38;;;;;;;;;;;;;;;21.07;41.03;101841.69;5036188;28;20044;-65
2022/11/29 11:55:33;;;;;;;4.82;2.60;;;;;;;21.01;41.34;101834.41;5039824;28;19920;-65
2022/11/29 11:58:11;;;;;;;5.43;2.80;;;;;;;21.00;41.12;101835.38;5026380;28;20045;-65
2022/11/29 12:00:50;;;;;;;5.97;3.10;;;;;;;21.00;41.25;101845.97;5033713;28;20118;-65
2022/11/29 12:03:40;;;;;;;3.80;2.63;;;;;;;20.97;41.47;101847.13;5036711;28;20045;-65
2022/11/29 12:06:12;;;;;;;4.00;2.60;;;;;;;20.99;41.35;101855.75;5010206;28;20495;-64
2022/11/29 12:08:38;;;;;;;5.05;2.47;;;;;;;20.94;41.23;101844.00;5035064;28;20045;-65
2022/11/29 12:11:09;;;;;;;5.05;2.72;;;;;;;20.97;41.25;101849.78;5034065;28;20089;-65
2022/11/29 12:13:40;;;;;;;4.95;2.55;;;;;;;20.93;41.58;101858.22;5032283;28;20525;-65
2022/11/29 12:16:26;;;;;;;4.10;2.40;;;;;;;20.92;41.32;101861.88;5035427;28;20043;-65
2022/11/29 12:19:10;;;;;;;3.30;2.40;;;;;;;20.88;41.52;101863.19;5028853;28;20387;-65
2022/11/29 12:21:42;;;;;;;4.28;2.65;;;;;;;20.87;41.48;101858.88;5020926;28;20083;-64
2022/11/29 12:24:26;;;;;;;4.57;2.40;;;;;;;20.90;41.72;101866.50;5018003;28;20458;-64